Renner Field-Goodland Municipal Airport
KGLD : now visible

Airfield :











YOU CAN JOIN US ON...

 
LOGIN :

Register | Disclaimer

   EN    FR    IT 

 









Legend :    VFR   Marginal VFR   IFR   Intensive IFR   Very Intensive IFR
Visi :
Ceiling :
>= 8 km
>= 3000ft
5 to 8 km
1000 to 3000 ft
1500m to 5 km
500 to 1000 ft
800 to 1500m
200 to 500 ft
< 800m
< 200 ft
Symbols :   Thunderstorms  Fog  Heavy snow  Heavy precipitations  Wind > 20 kt






- Airport Elevation : 3656 ft


KGLD - Renner Field-Goodland Municipal

CURRENT METAR :
  • 161753Z AUTO 17018G25KT 10SM CLR 31/13 A2985 RMK AO2 SLP058 T03110133 10311 20167 58009

EXPIRED METARs :
  • 161653Z AUTO 19012G21KT 10SM CLR 28/14 A2987 RMK AO2 SLP069 T02780139
  • 161553Z AUTO 20015KT 10SM CLR 25/14 A2988 RMK AO2 SLP076 T02500144

TAF KGLD
Valid from the 16 at 18:00 until the 17 at 18:00 UTC


161735Z 1618/1718 18016G25KT P6SM SKC
FM170300 18015KT P6SM FEW250 WS020/19045KT
FM170800 20011KT P6SM FEW250
FM170900 28012KT P6SM FEW250
FM171000 01015G23KT P6SM SCT200
FM171300 01018G30KT P6SM BKN015
KZDV FIR / North America



MET'MAP, your aeronautical weather chart ! - Copyright ORBIFLY December 2007 - Disclaimer

ORBIFLY MET'MAP TEAM :

Programming & Development : Alexandra Zaïnal
Concept & original design : Baudouin d'Aumeries
Assistance for programming : Marc-Olivier Méhu
Technical & hardware support : Manuel Goepfert

Contact : metmap@orbifly.com




SOURCES & CREDITS :

   NOAA       Earth
Advisory